sensor_id;sensor_type;location;lat;lon;timestamp;P1;durP1;ratioP1;P2;durP2;ratioP2
83513;SDS011;73447;53.262;10.424;2023-12-20T00:02:07;7.00;;;2.90;;
83513;SDS011;73447;53.262;10.424;2023-12-20T00:04:33;11.85;;;3.15;;
83513;SDS011;73447;53.262;10.424;2023-12-20T00:06:58;12.98;;;2.95;;
83513;SDS011;73447;53.262;10.424;2023-12-20T00:09:24;7.28;;;2.78;;
83513;SDS011;73447;53.262;10.424;2023-12-20T00:11:49;11.15;;;2.75;;
83513;SDS011;73447;53.262;10.424;2023-12-20T00:14:14;8.10;;;3.47;;
83513;SDS011;73447;53.262;10.424;2023-12-20T00:16:40;12.73;;;3.10;;
83513;SDS011;73447;53.262;10.424;2023-12-20T00:19:05;8.60;;;2.67;;
83513;SDS011;73447;53.262;10.424;2023-12-20T00:21:30;8.70;;;2.80;;
83513;SDS011;73447;53.262;10.424;2023-12-20T00:23:56;13.82;;;3.10;;
83513;SDS011;73447;53.262;10.424;2023-12-20T00:26:21;12.10;;;3.33;;
83513;SDS011;73447;53.262;10.424;2023-12-20T00:28:47;11.10;;;2.95;;
83513;SDS011;73447;53.262;10.424;2023-12-20T00:31:12;7.68;;;2.65;;
83513;SDS011;73447;53.262;10.424;2023-12-20T00:33:37;13.00;;;2.78;;
83513;SDS011;73447;53.262;10.424;2023-12-20T00:36:04;7.57;;;2.47;;
83513;SDS011;73447;53.262;10.424;2023-12-20T00:38:30;11.63;;;2.90;;
83513;SDS011;73447;53.262;10.424;2023-12-20T00:40:56;11.70;;;2.88;;
83513;SDS011;73447;53.262;10.424;2023-12-20T00:43:21;8.73;;;2.58;;
83513;SDS011;73447;53.262;10.424;2023-12-20T00:45:46;12.25;;;3.00;;
83513;SDS011;73447;53.262;10.424;2023-12-20T00:48:12;13.90;;;2.90;;
83513;SDS011;73447;53.262;10.424;2023-12-20T00:50:37;11.65;;;3.05;;
83513;SDS011;73447;53.262;10.424;2023-12-20T00:53:03;11.32;;;3.22;;
83513;SDS011;73447;53.262;10.424;2023-12-20T00:55:28;10.25;;;3.15;;
83513;SDS011;73447;53.262;10.424;2023-12-20T00:57:54;8.27;;;2.63;;
83513;SDS011;73447;53.262;10.424;2023-12-20T01:00:19;15.05;;;3.70;;
83513;SDS011;73447;53.262;10.424;2023-12-20T01:02:44;11.90;;;2.75;;
83513;SDS011;73447;53.262;10.424;2023-12-20T01:05:11;16.60;;;2.88;;
83513;SDS011;73447;53.262;10.424;2023-12-20T01:07:37;7.45;;;2.53;;
83513;SDS011;73447;53.262;10.424;2023-12-20T01:10:02;10.23;;;2.55;;
83513;SDS011;73447;53.262;10.424;2023-12-20T01:12:28;9.45;;;2.63;;
83513;SDS011;73447;53.262;10.424;2023-12-20T01:14:53;7.00;;;2.17;;
83513;SDS011;73447;53.262;10.424;2023-12-20T01:17:19;8.32;;;2.67;;
83513;SDS011;73447;53.262;10.424;2023-12-20T01:19:44;9.15;;;2.72;;
83513;SDS011;73447;53.262;10.424;2023-12-20T01:22:09;10.50;;;2.53;;
83513;SDS011;73447;53.262;10.424;2023-12-20T01:24:35;7.65;;;2.92;;
83513;SDS011;73447;53.262;10.424;2023-12-20T01:27:00;10.50;;;2.70;;
83513;SDS011;73447;53.262;10.424;2023-12-20T01:29:26;11.13;;;2.63;;
83513;SDS011;73447;53.262;10.424;2023-12-20T01:31:51;12.25;;;3.25;;
83513;SDS011;73447;53.262;10.424;2023-12-20T01:34:17;7.28;;;2.65;;
83513;SDS011;73447;53.262;10.424;2023-12-20T01:36:43;11.23;;;2.65;;
83513;SDS011;73447;53.262;10.424;2023-12-20T01:39:08;8.10;;;2.55;;
83513;SDS011;73447;53.262;10.424;2023-12-20T01:41:33;18.38;;;4.43;;
83513;SDS011;73447;53.262;10.424;2023-12-20T01:43:59;15.65;;;3.10;;
83513;SDS011;73447;53.262;10.424;2023-12-20T01:46:24;14.13;;;2.95;;
83513;SDS011;73447;53.262;10.424;2023-12-20T01:48:50;12.13;;;2.65;;
83513;SDS011;73447;53.262;10.424;2023-12-20T01:51:16;11.30;;;2.60;;
83513;SDS011;73447;53.262;10.424;2023-12-20T01:53:42;10.55;;;2.72;;
83513;SDS011;73447;53.262;10.424;2023-12-20T01:56:08;13.07;;;3.08;;
83513;SDS011;73447;53.262;10.424;2023-12-20T01:58:36;12.52;;;3.38;;
83513;SDS011;73447;53.262;10.424;2023-12-20T02:01:07;12.32;;;2.72;;
83513;SDS011;73447;53.262;10.424;2023-12-20T02:03:32;10.40;;;2.92;;
83513;SDS011;73447;53.262;10.424;2023-12-20T02:05:59;10.98;;;2.70;;
83513;SDS011;73447;53.262;10.424;2023-12-20T02:08:25;11.20;;;2.53;;
83513;SDS011;73447;53.262;10.424;2023-12-20T02:10:50;11.63;;;2.63;;
83513;SDS011;73447;53.262;10.424;2023-12-20T02:13:15;11.82;;;2.47;;
83513;SDS011;73447;53.262;10.424;2023-12-20T02:15:41;8.77;;;2.55;;
83513;SDS011;73447;53.262;10.424;2023-12-20T02:18:08;9.63;;;2.70;;
83513;SDS011;73447;53.262;10.424;2023-12-20T02:20:34;8.50;;;2.60;;
83513;SDS011;73447;53.262;10.424;2023-12-20T02:22:59;8.98;;;3.05;;
83513;SDS011;73447;53.262;10.424;2023-12-20T02:25:25;12.10;;;3.28;;
83513;SDS011;73447;53.262;10.424;2023-12-20T02:27:50;17.08;;;3.20;;
83513;SDS011;73447;53.262;10.424;2023-12-20T02:30:15;11.05;;;3.45;;
83513;SDS011;73447;53.262;10.424;2023-12-20T02:32:41;10.63;;;3.72;;
83513;SDS011;73447;53.262;10.424;2023-12-20T02:35:06;14.75;;;3.88;;
83513;SDS011;73447;53.262;10.424;2023-12-20T02:37:35;7.63;;;3.22;;
83513;SDS011;73447;53.262;10.424;2023-12-20T02:40:00;24.55;;;3.83;;
83513;SDS011;73447;53.262;10.424;2023-12-20T02:42:26;13.38;;;3.40;;
83513;SDS011;73447;53.262;10.424;2023-12-20T02:44:51;15.23;;;4.03;;
83513;SDS011;73447;53.262;10.424;2023-12-20T02:47:16;11.32;;;3.80;;
83513;SDS011;73447;53.262;10.424;2023-12-20T02:49:42;11.93;;;4.13;;
83513;SDS011;73447;53.262;10.424;2023-12-20T02:52:07;15.90;;;4.28;;
83513;SDS011;73447;53.262;10.424;2023-12-20T02:54:33;12.93;;;3.85;;
83513;SDS011;73447;53.262;10.424;2023-12-20T02:56:58;16.40;;;4.47;;
83513;SDS011;73447;53.262;10.424;2023-12-20T02:59:23;12.30;;;3.75;;
83513;SDS011;73447;53.262;10.424;2023-12-20T03:01:49;14.88;;;4.20;;
83513;SDS011;73447;53.262;10.424;2023-12-20T03:04:14;13.32;;;3.83;;
83513;SDS011;73447;53.262;10.424;2023-12-20T03:06:39;13.05;;;4.20;;
83513;SDS011;73447;53.262;10.424;2023-12-20T03:09:05;13.55;;;4.18;;
83513;SDS011;73447;53.262;10.424;2023-12-20T03:11:30;15.43;;;4.70;;
83513;SDS011;73447;53.262;10.424;2023-12-20T03:13:56;15.00;;;4.95;;
83513;SDS011;73447;53.262;10.424;2023-12-20T03:16:22;13.65;;;4.90;;
83513;SDS011;73447;53.262;10.424;2023-12-20T03:18:48;15.85;;;4.40;;
83513;SDS011;73447;53.262;10.424;2023-12-20T03:21:13;15.65;;;4.80;;
83513;SDS011;73447;53.262;10.424;2023-12-20T03:23:39;13.43;;;3.90;;
83513;SDS011;73447;53.262;10.424;2023-12-20T03:26:09;12.13;;;3.88;;
83513;SDS011;73447;53.262;10.424;2023-12-20T03:28:35;11.75;;;3.90;;
83513;SDS011;73447;53.262;10.424;2023-12-20T03:31:01;10.77;;;3.95;;
83513;SDS011;73447;53.262;10.424;2023-12-20T03:33:27;12.23;;;4.32;;
83513;SDS011;73447;53.262;10.424;2023-12-20T03:35:53;8.80;;;3.65;;
83513;SDS011;73447;53.262;10.424;2023-12-20T03:38:18;10.95;;;3.75;;
83513;SDS011;73447;53.262;10.424;2023-12-20T03:40:44;15.48;;;4.18;;
83513;SDS011;73447;53.262;10.424;2023-12-20T03:43:09;11.35;;;3.58;;
83513;SDS011;73447;53.262;10.424;2023-12-20T03:45:34;14.27;;;3.88;;
83513;SDS011;73447;53.262;10.424;2023-12-20T03:48:00;7.20;;;3.05;;
83513;SDS011;73447;53.262;10.424;2023-12-20T03:50:25;11.52;;;3.90;;
83513;SDS011;73447;53.262;10.424;2023-12-20T03:52:51;8.00;;;3.30;;
83513;SDS011;73447;53.262;10.424;2023-12-20T03:55:17;12.32;;;3.83;;
83513;SDS011;73447;53.262;10.424;2023-12-20T03:57:42;10.35;;;3.58;;
83513;SDS011;73447;53.262;10.424;2023-12-20T04:00:08;8.43;;;3.88;;
83513;SDS011;73447;53.262;10.424;2023-12-20T04:02:36;11.43;;;3.03;;
83513;SDS011;73447;53.262;10.424;2023-12-20T04:05:07;8.82;;;2.95;;
83513;SDS011;73447;53.262;10.424;2023-12-20T04:07:33;12.55;;;4.28;;
83513;SDS011;73447;53.262;10.424;2023-12-20T04:09:59;13.30;;;3.40;;
83513;SDS011;73447;53.262;10.424;2023-12-20T04:12:25;12.18;;;3.30;;
83513;SDS011;73447;53.262;10.424;2023-12-20T04:14:52;10.38;;;3.47;;
83513;SDS011;73447;53.262;10.424;2023-12-20T04:17:17;7.40;;;2.72;;
83513;SDS011;73447;53.262;10.424;2023-12-20T04:19:43;9.25;;;3.00;;
83513;SDS011;73447;53.262;10.424;2023-12-20T04:22:08;11.48;;;3.05;;
83513;SDS011;73447;53.262;10.424;2023-12-20T04:24:34;5.55;;;2.55;;
83513;SDS011;73447;53.262;10.424;2023-12-20T04:26:59;14.80;;;4.00;;
83513;SDS011;73447;53.262;10.424;2023-12-20T04:29:24;8.95;;;3.47;;
83513;SDS011;73447;53.262;10.424;2023-12-20T04:31:50;9.40;;;3.05;;
83513;SDS011;73447;53.262;10.424;2023-12-20T04:34:16;8.88;;;3.22;;
83513;SDS011;73447;53.262;10.424;2023-12-20T04:36:42;16.17;;;3.47;;
83513;SDS011;73447;53.262;10.424;2023-12-20T04:39:08;8.23;;;2.88;;
83513;SDS011;73447;53.262;10.424;2023-12-20T04:41:33;10.70;;;3.40;;
83513;SDS011;73447;53.262;10.424;2023-12-20T04:43:59;11.38;;;3.50;;
83513;SDS011;73447;53.262;10.424;2023-12-20T04:46:25;10.63;;;3.25;;
83513;SDS011;73447;53.262;10.424;2023-12-20T04:48:51;12.32;;;3.10;;
83513;SDS011;73447;53.262;10.424;2023-12-20T04:51:16;16.23;;;3.92;;
83513;SDS011;73447;53.262;10.424;2023-12-20T04:53:41;8.95;;;4.25;;
83513;SDS011;73447;53.262;10.424;2023-12-20T04:56:07;10.05;;;2.90;;
83513;SDS011;73447;53.262;10.424;2023-12-20T04:58:32;8.05;;;3.28;;
83513;SDS011;73447;53.262;10.424;2023-12-20T05:00:57;12.02;;;4.00;;
83513;SDS011;73447;53.262;10.424;2023-12-20T05:03:23;8.13;;;3.55;;
83513;SDS011;73447;53.262;10.424;2023-12-20T05:05:48;15.07;;;3.38;;
83513;SDS011;73447;53.262;10.424;2023-12-20T05:08:14;10.65;;;3.30;;
83513;SDS011;73447;53.262;10.424;2023-12-20T05:10:40;7.35;;;3.30;;
83513;SDS011;73447;53.262;10.424;2023-12-20T05:13:05;12.07;;;3.40;;
83513;SDS011;73447;53.262;10.424;2023-12-20T05:15:31;13.02;;;4.28;;
83513;SDS011;73447;53.262;10.424;2023-12-20T05:17:56;9.80;;;3.60;;
83513;SDS011;73447;53.262;10.424;2023-12-20T05:20:22;14.00;;;3.88;;
83513;SDS011;73447;53.262;10.424;2023-12-20T05:22:48;11.25;;;3.75;;
83513;SDS011;73447;53.262;10.424;2023-12-20T05:25:13;20.40;;;4.57;;
83513;SDS011;73447;53.262;10.424;2023-12-20T05:27:39;12.05;;;4.20;;
83513;SDS011;73447;53.262;10.424;2023-12-20T05:30:05;12.98;;;4.57;;
83513;SDS011;73447;53.262;10.424;2023-12-20T05:32:30;16.42;;;5.18;;
83513;SDS011;73447;53.262;10.424;2023-12-20T05:34:56;13.85;;;4.65;;
83513;SDS011;73447;53.262;10.424;2023-12-20T05:37:21;10.60;;;3.58;;
83513;SDS011;73447;53.262;10.424;2023-12-20T05:39:47;11.60;;;3.95;;
83513;SDS011;73447;53.262;10.424;2023-12-20T05:42:12;14.20;;;4.45;;
83513;SDS011;73447;53.262;10.424;2023-12-20T05:44:37;15.20;;;4.25;;
83513;SDS011;73447;53.262;10.424;2023-12-20T05:47:03;17.60;;;4.47;;
83513;SDS011;73447;53.262;10.424;2023-12-20T05:49:28;11.23;;;3.60;;
83513;SDS011;73447;53.262;10.424;2023-12-20T05:51:54;12.32;;;3.80;;
83513;SDS011;73447;53.262;10.424;2023-12-20T05:54:19;13.25;;;4.82;;
83513;SDS011;73447;53.262;10.424;2023-12-20T05:56:44;18.08;;;4.30;;
83513;SDS011;73447;53.262;10.424;2023-12-20T05:59:10;19.58;;;3.88;;
83513;SDS011;73447;53.262;10.424;2023-12-20T06:01:35;13.85;;;4.63;;
83513;SDS011;73447;53.262;10.424;2023-12-20T06:04:01;11.82;;;4.25;;
83513;SDS011;73447;53.262;10.424;2023-12-20T06:06:26;12.43;;;4.22;;
83513;SDS011;73447;53.262;10.424;2023-12-20T06:08:51;13.73;;;3.70;;
83513;SDS011;73447;53.262;10.424;2023-12-20T06:11:17;10.65;;;4.32;;
83513;SDS011;73447;53.262;10.424;2023-12-20T06:13:42;10.88;;;4.15;;
83513;SDS011;73447;53.262;10.424;2023-12-20T06:16:08;13.88;;;3.78;;
83513;SDS011;73447;53.262;10.424;2023-12-20T06:18:33;13.65;;;4.30;;
83513;SDS011;73447;53.262;10.424;2023-12-20T06:20:59;13.05;;;4.32;;
83513;SDS011;73447;53.262;10.424;2023-12-20T06:23:24;8.63;;;3.95;;
83513;SDS011;73447;53.262;10.424;2023-12-20T06:25:49;12.80;;;4.22;;
83513;SDS011;73447;53.262;10.424;2023-12-20T06:28:15;13.48;;;4.63;;
83513;SDS011;73447;53.262;10.424;2023-12-20T06:30:40;10.32;;;4.13;;
83513;SDS011;73447;53.262;10.424;2023-12-20T06:33:06;18.85;;;5.05;;
83513;SDS011;73447;53.262;10.424;2023-12-20T06:35:31;13.38;;;5.00;;
83513;SDS011;73447;53.262;10.424;2023-12-20T06:37:57;12.70;;;4.10;;
83513;SDS011;73447;53.262;10.424;2023-12-20T06:40:22;14.27;;;4.90;;
83513;SDS011;73447;53.262;10.424;2023-12-20T06:42:48;14.05;;;4.90;;
83513;SDS011;73447;53.262;10.424;2023-12-20T06:45:13;16.38;;;4.80;;
83513;SDS011;73447;53.262;10.424;2023-12-20T06:47:39;14.20;;;4.85;;
83513;SDS011;73447;53.262;10.424;2023-12-20T06:50:05;14.27;;;4.78;;
83513;SDS011;73447;53.262;10.424;2023-12-20T06:52:30;16.55;;;4.55;;
83513;SDS011;73447;53.262;10.424;2023-12-20T06:54:56;10.13;;;4.32;;
83513;SDS011;73447;53.262;10.424;2023-12-20T06:57:21;16.02;;;4.60;;
83513;SDS011;73447;53.262;10.424;2023-12-20T06:59:47;16.13;;;4.60;;
83513;SDS011;73447;53.262;10.424;2023-12-20T07:02:12;11.57;;;4.10;;
83513;SDS011;73447;53.262;10.424;2023-12-20T07:04:41;14.85;;;4.57;;
83513;SDS011;73447;53.262;10.424;2023-12-20T07:07:06;14.23;;;4.40;;
83513;SDS011;73447;53.262;10.424;2023-12-20T07:09:32;14.10;;;3.83;;
83513;SDS011;73447;53.262;10.424;2023-12-20T07:11:58;15.55;;;4.35;;
83513;SDS011;73447;53.262;10.424;2023-12-20T07:14:23;15.70;;;4.22;;
83513;SDS011;73447;53.262;10.424;2023-12-20T07:16:48;13.55;;;4.10;;
83513;SDS011;73447;53.262;10.424;2023-12-20T07:19:14;21.88;;;4.28;;
83513;SDS011;73447;53.262;10.424;2023-12-20T07:21:39;10.55;;;3.67;;
83513;SDS011;73447;53.262;10.424;2023-12-20T07:24:05;12.38;;;4.05;;
83513;SDS011;73447;53.262;10.424;2023-12-20T07:26:30;16.65;;;4.55;;
83513;SDS011;73447;53.262;10.424;2023-12-20T07:28:55;11.27;;;3.60;;
83513;SDS011;73447;53.262;10.424;2023-12-20T07:31:21;10.60;;;3.78;;
83513;SDS011;73447;53.262;10.424;2023-12-20T07:33:46;12.73;;;3.60;;
83513;SDS011;73447;53.262;10.424;2023-12-20T07:36:12;14.90;;;3.85;;
83513;SDS011;73447;53.262;10.424;2023-12-20T07:38:38;15.40;;;4.20;;
83513;SDS011;73447;53.262;10.424;2023-12-20T07:41:03;20.02;;;4.35;;
83513;SDS011;73447;53.262;10.424;2023-12-20T07:43:29;13.60;;;4.13;;
83513;SDS011;73447;53.262;10.424;2023-12-20T07:45:54;12.02;;;3.70;;
83513;SDS011;73447;53.262;10.424;2023-12-20T07:48:20;12.02;;;3.67;;
83513;SDS011;73447;53.262;10.424;2023-12-20T07:50:45;14.40;;;3.65;;
83513;SDS011;73447;53.262;10.424;2023-12-20T07:53:10;9.63;;;4.13;;
83513;SDS011;73447;53.262;10.424;2023-12-20T07:55:36;11.68;;;4.10;;
83513;SDS011;73447;53.262;10.424;2023-12-20T07:58:01;16.98;;;4.32;;
83513;SDS011;73447;53.262;10.424;2023-12-20T08:00:27;11.43;;;3.50;;
83513;SDS011;73447;53.262;10.424;2023-12-20T08:02:52;12.88;;;4.22;;
83513;SDS011;73447;53.262;10.424;2023-12-20T08:05:18;9.77;;;3.38;;
83513;SDS011;73447;53.262;10.424;2023-12-20T08:07:43;16.20;;;3.50;;
83513;SDS011;73447;53.262;10.424;2023-12-20T08:10:09;18.08;;;4.50;;
83513;SDS011;73447;53.262;10.424;2023-12-20T08:12:34;9.85;;;4.18;;
83513;SDS011;73447;53.262;10.424;2023-12-20T08:15:00;21.55;;;4.22;;
83513;SDS011;73447;53.262;10.424;2023-12-20T08:17:26;12.35;;;3.80;;
83513;SDS011;73447;53.262;10.424;2023-12-20T08:19:51;14.57;;;3.75;;
83513;SDS011;73447;53.262;10.424;2023-12-20T08:22:17;10.65;;;3.85;;
83513;SDS011;73447;53.262;10.424;2023-12-20T08:24:42;20.77;;;3.85;;
83513;SDS011;73447;53.262;10.424;2023-12-20T08:27:08;15.57;;;4.22;;
83513;SDS011;73447;53.262;10.424;2023-12-20T08:29:34;22.92;;;4.95;;
83513;SDS011;73447;53.262;10.424;2023-12-20T08:32:00;15.98;;;4.50;;
83513;SDS011;73447;53.262;10.424;2023-12-20T08:34:25;15.38;;;4.13;;
83513;SDS011;73447;53.262;10.424;2023-12-20T08:36:51;18.73;;;3.92;;
83513;SDS011;73447;53.262;10.424;2023-12-20T08:39:17;20.23;;;4.20;;
83513;SDS011;73447;53.262;10.424;2023-12-20T08:41:42;10.75;;;3.47;;
83513;SDS011;73447;53.262;10.424;2023-12-20T08:44:08;14.70;;;4.05;;
83513;SDS011;73447;53.262;10.424;2023-12-20T08:46:34;16.88;;;4.20;;
83513;SDS011;73447;53.262;10.424;2023-12-20T08:49:00;20.35;;;4.93;;
83513;SDS011;73447;53.262;10.424;2023-12-20T08:51:26;12.45;;;3.80;;
83513;SDS011;73447;53.262;10.424;2023-12-20T08:53:52;13.60;;;3.80;;
83513;SDS011;73447;53.262;10.424;2023-12-20T08:56:18;15.63;;;4.43;;
83513;SDS011;73447;53.262;10.424;2023-12-20T08:58:44;17.60;;;4.32;;
83513;SDS011;73447;53.262;10.424;2023-12-20T09:01:09;13.40;;;4.10;;
83513;SDS011;73447;53.262;10.424;2023-12-20T09:03:35;15.30;;;4.40;;
83513;SDS011;73447;53.262;10.424;2023-12-20T09:06:00;8.38;;;3.63;;
83513;SDS011;73447;53.262;10.424;2023-12-20T09:08:26;13.40;;;4.18;;
83513;SDS011;73447;53.262;10.424;2023-12-20T09:10:51;18.67;;;4.10;;
83513;SDS011;73447;53.262;10.424;2023-12-20T09:13:17;11.95;;;4.55;;
83513;SDS011;73447;53.262;10.424;2023-12-20T09:15:42;13.55;;;4.53;;
83513;SDS011;73447;53.262;10.424;2023-12-20T09:18:08;17.77;;;6.07;;
83513;SDS011;73447;53.262;10.424;2023-12-20T09:20:33;12.20;;;3.72;;
83513;SDS011;73447;53.262;10.424;2023-12-20T09:22:59;15.10;;;3.67;;
83513;SDS011;73447;53.262;10.424;2023-12-20T09:25:24;16.23;;;4.70;;
83513;SDS011;73447;53.262;10.424;2023-12-20T09:27:51;11.85;;;3.60;;
83513;SDS011;73447;53.262;10.424;2023-12-20T09:30:17;13.98;;;4.28;;
83513;SDS011;73447;53.262;10.424;2023-12-20T09:32:43;19.25;;;4.57;;
83513;SDS011;73447;53.262;10.424;2023-12-20T09:35:08;14.85;;;3.75;;
83513;SDS011;73447;53.262;10.424;2023-12-20T09:37:35;16.25;;;4.80;;
83513;SDS011;73447;53.262;10.424;2023-12-20T09:40:00;16.67;;;4.20;;
83513;SDS011;73447;53.262;10.424;2023-12-20T09:42:32;17.33;;;4.38;;
83513;SDS011;73447;53.262;10.424;2023-12-20T09:45:00;17.77;;;3.85;;
83513;SDS011;73447;53.262;10.424;2023-12-20T09:47:28;18.33;;;5.47;;
83513;SDS011;73447;53.262;10.424;2023-12-20T09:49:54;16.25;;;4.45;;
83513;SDS011;73447;53.262;10.424;2023-12-20T09:52:20;11.68;;;3.63;;
83513;SDS011;73447;53.262;10.424;2023-12-20T09:54:47;16.38;;;4.55;;
83513;SDS011;73447;53.262;10.424;2023-12-20T09:57:16;18.63;;;5.13;;
83513;SDS011;73447;53.262;10.424;2023-12-20T09:59:42;14.90;;;4.72;;
83513;SDS011;73447;53.262;10.424;2023-12-20T10:02:08;15.02;;;4.50;;
83513;SDS011;73447;53.262;10.424;2023-12-20T10:04:39;14.25;;;3.88;;
83513;SDS011;73447;53.262;10.424;2023-12-20T10:07:15;7.43;;;3.22;;
83513;SDS011;73447;53.262;10.424;2023-12-20T10:09:41;4.72;;;2.22;;
83513;SDS011;73447;53.262;10.424;2023-12-20T10:12:07;4.78;;;1.80;;
83513;SDS011;73447;53.262;10.424;2023-12-20T10:14:33;5.30;;;1.60;;
83513;SDS011;73447;53.262;10.424;2023-12-20T10:17:02;5.93;;;1.80;;
83513;SDS011;73447;53.262;10.424;2023-12-20T10:19:28;4.63;;;1.80;;
83513;SDS011;73447;53.262;10.424;2023-12-20T10:21:54;5.82;;;1.90;;
83513;SDS011;73447;53.262;10.424;2023-12-20T10:24:19;1.95;;;1.45;;
83513;SDS011;73447;53.262;10.424;2023-12-20T10:26:45;3.70;;;1.73;;
83513;SDS011;73447;53.262;10.424;2023-12-20T10:29:10;3.22;;;1.17;;
83513;SDS011;73447;53.262;10.424;2023-12-20T10:31:36;3.45;;;1.38;;
83513;SDS011;73447;53.262;10.424;2023-12-20T10:34:03;5.00;;;1.70;;
83513;SDS011;73447;53.262;10.424;2023-12-20T10:36:30;5.38;;;1.45;;
83513;SDS011;73447;53.262;10.424;2023-12-20T10:38:57;2.70;;;1.00;;
83513;SDS011;73447;53.262;10.424;2023-12-20T10:41:26;5.22;;;1.92;;
83513;SDS011;73447;53.262;10.424;2023-12-20T10:44:11;3.53;;;1.23;;
83513;SDS011;73447;53.262;10.424;2023-12-20T10:46:38;2.08;;;1.42;;
83513;SDS011;73447;53.262;10.424;2023-12-20T10:49:05;1.88;;;1.17;;
83513;SDS011;73447;53.262;10.424;2023-12-20T10:51:33;2.95;;;1.42;;
83513;SDS011;73447;53.262;10.424;2023-12-20T10:53:59;4.82;;;1.20;;
83513;SDS011;73447;53.262;10.424;2023-12-20T10:56:25;3.60;;;1.48;;
83513;SDS011;73447;53.262;10.424;2023-12-20T10:58:55;2.55;;;1.40;;
83513;SDS011;73447;53.262;10.424;2023-12-20T11:01:22;1.92;;;1.00;;
83513;SDS011;73447;53.262;10.424;2023-12-20T11:03:50;3.67;;;1.15;;
83513;SDS011;73447;53.262;10.424;2023-12-20T11:08:58;2.30;;;1.00;;
83513;SDS011;73447;53.262;10.424;2023-12-20T11:11:37;3.13;;;1.10;;
83513;SDS011;73447;53.262;10.424;2023-12-20T11:14:25;2.05;;;1.17;;
83513;SDS011;73447;53.262;10.424;2023-12-20T11:17:09;1.60;;;0.93;;
83513;SDS011;73447;53.262;10.424;2023-12-20T11:20:24;2.83;;;1.20;;
83513;SDS011;73447;53.262;10.424;2023-12-20T11:22:27;3.50;;;1.45;;
83513;SDS011;73447;53.262;10.424;2023-12-20T11:25:02;2.67;;;1.05;;
83513;SDS011;73447;53.262;10.424;2023-12-20T11:27:30;2.20;;;1.10;;
83513;SDS011;73447;53.262;10.424;2023-12-20T11:29:56;3.38;;;1.10;;
83513;SDS011;73447;53.262;10.424;2023-12-20T11:35:27;3.40;;;1.67;;
83513;SDS011;73447;53.262;10.424;2023-12-20T11:37:46;2.70;;;1.48;;
83513;SDS011;73447;53.262;10.424;2023-12-20T11:40:15;5.90;;;1.77;;
83513;SDS011;73447;53.262;10.424;2023-12-20T11:42:42;2.55;;;1.55;;
83513;SDS011;73447;53.262;10.424;2023-12-20T11:45:14;8.43;;;1.65;;
83513;SDS011;73447;53.262;10.424;2023-12-20T11:47:44;4.43;;;1.33;;
83513;SDS011;73447;53.262;10.424;2023-12-20T11:50:11;7.00;;;1.77;;
83513;SDS011;73447;53.262;10.424;2023-12-20T11:52:37;6.15;;;1.80;;
83513;SDS011;73447;53.262;10.424;2023-12-20T11:55:02;5.72;;;1.73;;
83513;SDS011;73447;53.262;10.424;2023-12-20T11:57:29;5.10;;;1.70;;
83513;SDS011;73447;53.262;10.424;2023-12-20T11:59:54;7.63;;;1.80;;
83513;SDS011;73447;53.262;10.424;2023-12-20T12:02:21;7.68;;;2.00;;
83513;SDS011;73447;53.262;10.424;2023-12-20T12:04:48;5.85;;;2.05;;
83513;SDS011;73447;53.262;10.424;2023-12-20T12:07:13;8.82;;;1.83;;
83513;SDS011;73447;53.262;10.424;2023-12-20T12:09:39;8.02;;;1.80;;
83513;SDS011;73447;53.262;10.424;2023-12-20T12:12:04;9.45;;;2.03;;
83513;SDS011;73447;53.262;10.424;2023-12-20T12:14:30;6.70;;;2.00;;
83513;SDS011;73447;53.262;10.424;2023-12-20T12:16:56;10.35;;;2.20;;
83513;SDS011;73447;53.262;10.424;2023-12-20T12:19:25;5.28;;;1.98;;
83513;SDS011;73447;53.262;10.424;2023-12-20T12:21:52;11.98;;;2.22;;
83513;SDS011;73447;53.262;10.424;2023-12-20T12:24:32;6.78;;;2.25;;
83513;SDS011;73447;53.262;10.424;2023-12-20T12:26:57;8.23;;;2.22;;
83513;SDS011;73447;53.262;10.424;2023-12-20T12:29:23;4.35;;;1.77;;
83513;SDS011;73447;53.262;10.424;2023-12-20T12:31:49;9.95;;;2.35;;
83513;SDS011;73447;53.262;10.424;2023-12-20T12:34:15;6.25;;;2.05;;
83513;SDS011;73447;53.262;10.424;2023-12-20T12:36:42;9.27;;;2.72;;
83513;SDS011;73447;53.262;10.424;2023-12-20T12:39:08;6.60;;;1.83;;
83513;SDS011;73447;53.262;10.424;2023-12-20T12:41:33;11.25;;;2.00;;
83513;SDS011;73447;53.262;10.424;2023-12-20T12:43:59;9.93;;;3.63;;
83513;SDS011;73447;53.262;10.424;2023-12-20T12:46:24;11.30;;;2.67;;
83513;SDS011;73447;53.262;10.424;2023-12-20T12:48:49;13.68;;;3.42;;
83513;SDS011;73447;53.262;10.424;2023-12-20T12:51:15;9.48;;;2.30;;
83513;SDS011;73447;53.262;10.424;2023-12-20T12:53:41;10.25;;;3.38;;
83513;SDS011;73447;53.262;10.424;2023-12-20T12:56:07;5.97;;;1.88;;
83513;SDS011;73447;53.262;10.424;2023-12-20T12:58:33;4.63;;;1.85;;
83513;SDS011;73447;53.262;10.424;2023-12-20T13:00:59;4.78;;;1.80;;
83513;SDS011;73447;53.262;10.424;2023-12-20T13:03:24;15.55;;;2.20;;
83513;SDS011;73447;53.262;10.424;2023-12-20T13:05:49;7.82;;;2.10;;
83513;SDS011;73447;53.262;10.424;2023-12-20T13:08:15;11.57;;;3.22;;
83513;SDS011;73447;53.262;10.424;2023-12-20T13:10:41;7.82;;;2.20;;
83513;SDS011;73447;53.262;10.424;2023-12-20T13:13:06;6.90;;;2.30;;
83513;SDS011;73447;53.262;10.424;2023-12-20T13:15:32;6.43;;;2.35;;
83513;SDS011;73447;53.262;10.424;2023-12-20T13:17:57;8.15;;;2.55;;
83513;SDS011;73447;53.262;10.424;2023-12-20T13:20:23;5.13;;;1.90;;
83513;SDS011;73447;53.262;10.424;2023-12-20T13:22:48;5.90;;;1.67;;
83513;SDS011;73447;53.262;10.424;2023-12-20T13:25:14;8.27;;;1.80;;
83513;SDS011;73447;53.262;10.424;2023-12-20T13:27:39;9.63;;;1.80;;
83513;SDS011;73447;53.262;10.424;2023-12-20T13:30:06;5.38;;;1.80;;
83513;SDS011;73447;53.262;10.424;2023-12-20T13:32:32;4.35;;;1.90;;
83513;SDS011;73447;53.262;10.424;2023-12-20T13:34:57;5.78;;;1.90;;
83513;SDS011;73447;53.262;10.424;2023-12-20T13:37:23;10.40;;;2.20;;
83513;SDS011;73447;53.262;10.424;2023-12-20T13:39:48;13.52;;;2.75;;
83513;SDS011;73447;53.262;10.424;2023-12-20T13:42:14;9.25;;;2.33;;
83513;SDS011;73447;53.262;10.424;2023-12-20T13:44:39;7.35;;;2.40;;
83513;SDS011;73447;53.262;10.424;2023-12-20T13:47:05;6.50;;;1.85;;
83513;SDS011;73447;53.262;10.424;2023-12-20T13:49:31;10.77;;;3.80;;
83513;SDS011;73447;53.262;10.424;2023-12-20T13:51:56;8.63;;;2.65;;
83513;SDS011;73447;53.262;10.424;2023-12-20T13:54:22;11.32;;;2.40;;
83513;SDS011;73447;53.262;10.424;2023-12-20T13:56:48;9.32;;;2.67;;
83513;SDS011;73447;53.262;10.424;2023-12-20T13:59:13;13.05;;;2.95;;
83513;SDS011;73447;53.262;10.424;2023-12-20T14:01:40;7.53;;;2.70;;
83513;SDS011;73447;53.262;10.424;2023-12-20T14:04:05;12.18;;;3.63;;
83513;SDS011;73447;53.262;10.424;2023-12-20T14:06:32;12.25;;;3.13;;
83513;SDS011;73447;53.262;10.424;2023-12-20T14:08:58;14.88;;;4.65;;
83513;SDS011;73447;53.262;10.424;2023-12-20T14:11:25;11.82;;;3.50;;
83513;SDS011;73447;53.262;10.424;2023-12-20T14:13:51;15.82;;;4.90;;
83513;SDS011;73447;53.262;10.424;2023-12-20T14:16:16;10.65;;;3.45;;
83513;SDS011;73447;53.262;10.424;2023-12-20T14:18:42;13.90;;;3.65;;
83513;SDS011;73447;53.262;10.424;2023-12-20T14:21:07;10.05;;;3.47;;
83513;SDS011;73447;53.262;10.424;2023-12-20T14:23:33;8.75;;;4.00;;
83513;SDS011;73447;53.262;10.424;2023-12-20T14:26:01;15.32;;;3.63;;